createdAt,value
2019-01-19T00:01:21.758Z,100.00
2019-01-19T00:04:14.054Z,100.00
2019-01-19T00:07:09.717Z,100.00
2019-01-19T00:10:15.643Z,100.00
2019-01-19T00:13:09.727Z,100.00
2019-01-19T00:15:52.997Z,100.00
2019-01-19T00:18:36.493Z,100.00
2019-01-19T00:21:19.419Z,100.00
2019-01-19T00:24:02.896Z,100.00
2019-01-19T00:26:49.192Z,100.00
2019-01-19T00:29:35.294Z,100.00
2019-01-19T00:32:12.272Z,100.00
2019-01-19T00:35:04.429Z,100.00
2019-01-19T00:37:41.516Z,100.00
2019-01-19T00:40:46.193Z,100.00
2019-01-19T00:43:16.707Z,100.00
2019-01-19T00:45:59.860Z,100.00
2019-01-19T00:48:37.086Z,100.00
2019-01-19T00:51:19.459Z,100.00
2019-01-19T00:54:22.188Z,100.00
2019-01-19T00:57:08.536Z,100.00
2019-01-19T00:59:38.556Z,100.00
2019-01-19T01:02:32.599Z,100.00
2019-01-19T01:05:12.742Z,100.00
2019-01-19T01:08:02.164Z,100.00
2019-01-19T01:10:39.643Z,100.00
2019-01-19T01:13:32.181Z,100.00
2019-01-19T01:16:34.729Z,100.00
2019-01-19T01:19:15.499Z,100.00
2019-01-19T01:22:05.023Z,100.00
2019-01-19T01:25:20.693Z,100.00
2019-01-19T01:28:19.399Z,100.00
2019-01-19T01:31:01.830Z,100.00
2019-01-19T01:34:18.465Z,100.00
2019-01-19T01:37:10.744Z,100.00
2019-01-19T01:39:45.322Z,100.00
2019-01-19T01:42:46.589Z,100.00
2019-01-19T01:45:49.190Z,100.00
2019-01-19T01:48:32.175Z,100.00
2019-01-19T01:51:12.464Z,100.00
2019-01-19T01:54:20.247Z,100.00
2019-01-19T01:56:50.159Z,100.00
2019-01-19T01:59:33.411Z,100.00
2019-01-19T02:02:10.661Z,100.00
2019-01-19T02:05:05.631Z,100.00
2019-01-19T02:07:57.906Z,100.00
2019-01-19T02:10:47.193Z,100.00
2019-01-19T02:13:42.593Z,100.00
2019-01-19T02:16:36.319Z,100.00
2019-01-19T02:19:34.700Z,100.00
2019-01-19T02:22:12.118Z,100.00
2019-01-19T02:25:03.587Z,100.00
2019-01-19T02:27:37.926Z,100.00
2019-01-19T02:30:48.513Z,100.00
2019-01-19T02:33:42.145Z,100.00
2019-01-19T02:36:16.455Z,100.00
2019-01-19T02:38:50.746Z,100.00
2019-01-19T02:41:25.067Z,100.00
2019-01-19T02:44:02.306Z,100.00
2019-01-19T02:46:57.708Z,100.00
2019-01-19T02:50:05.909Z,100.00
2019-01-19T02:52:40.175Z,100.00
2019-01-19T02:55:43.784Z,100.00
2019-01-19T02:58:38.907Z,100.00
2019-01-19T03:01:25.249Z,100.00
2019-01-19T03:04:28.122Z,100.00
2019-01-19T03:07:31.192Z,100.00
2019-01-19T03:10:30.621Z,100.00
2019-01-19T03:13:38.122Z,100.00
2019-01-19T03:16:45.773Z,100.00
2019-01-19T03:19:47.224Z,100.00
2019-01-19T03:23:03.744Z,100.00
2019-01-19T03:26:01.256Z,100.00
2019-01-19T03:28:59.764Z,100.00
2019-01-19T03:31:55.137Z,100.00
2019-01-19T03:34:46.976Z,100.00
2019-01-19T03:37:33.127Z,100.00
2019-01-19T03:40:40.070Z,100.00
2019-01-19T03:43:32.415Z,100.00
2019-01-19T03:46:27.700Z,100.00
2019-01-19T03:49:27.660Z,100.00
2019-01-19T03:52:26.268Z,100.00
2019-01-19T03:55:24.809Z,100.00
2019-01-19T03:58:21.804Z,100.00
2019-01-19T04:01:11.396Z,100.00
2019-01-19T04:04:26.669Z,100.00
2019-01-19T04:07:29.695Z,100.00
2019-01-19T04:10:10.020Z,100.00
2019-01-19T04:13:01.742Z,100.00
2019-01-19T04:16:05.175Z,100.00
2019-01-19T04:18:45.091Z,100.00
2019-01-19T04:21:43.554Z,100.00
2019-01-19T04:24:20.935Z,100.00
2019-01-19T04:30:38.128Z,100.00
2019-01-19T04:33:07.627Z,100.00
2019-01-19T04:35:37.229Z,100.00
2019-01-19T04:38:06.750Z,100.00
2019-01-19T04:40:36.438Z,100.00
2019-01-19T04:43:06.029Z,100.00
2019-01-19T04:45:35.595Z,100.00
2019-01-19T04:48:05.518Z,100.00
2019-01-19T04:50:35.038Z,100.00
2019-01-19T04:53:04.681Z,100.00
2019-01-19T04:55:34.163Z,100.00
2019-01-19T04:58:03.753Z,100.00
2019-01-19T05:00:33.242Z,100.00
2019-01-19T05:03:04.854Z,100.00
2019-01-19T05:05:34.358Z,100.00
2019-01-19T05:08:04.153Z,100.00
2019-01-19T05:10:33.762Z,100.00
2019-01-19T05:13:03.306Z,100.00
2019-01-19T05:15:32.816Z,100.00
2019-01-19T05:18:02.466Z,100.00
2019-01-19T05:20:32.076Z,100.00
2019-01-19T05:23:01.611Z,100.00
2019-01-19T05:25:31.165Z,100.00
2019-01-19T05:28:00.654Z,100.00
2019-01-19T05:30:30.185Z,100.00
2019-01-19T05:32:59.688Z,100.00
2019-01-19T05:35:29.268Z,100.00
2019-01-19T05:37:58.784Z,100.00
2019-01-19T05:40:28.288Z,100.00
2019-01-19T05:42:57.775Z,100.00
2019-01-19T05:45:27.332Z,100.00
2019-01-19T05:47:56.925Z,100.00
2019-01-19T05:50:26.487Z,100.00
2019-01-19T05:52:55.990Z,100.00
2019-01-19T05:55:25.477Z,100.00
2019-01-19T05:57:55.064Z,100.00
2019-01-19T06:00:27.344Z,100.00
2019-01-19T06:02:56.831Z,100.00
2019-01-19T06:05:26.419Z,100.00
2019-01-19T06:07:56.116Z,100.00
2019-01-19T06:10:25.676Z,100.00
2019-01-19T06:12:55.176Z,100.00
2019-01-19T06:15:24.809Z,100.00
2019-01-19T06:17:54.324Z,100.00
2019-01-19T06:20:24.023Z,100.00
2019-01-19T06:22:53.624Z,100.00
2019-01-19T06:25:23.195Z,100.00
2019-01-19T06:27:52.689Z,100.00
2019-01-19T06:30:23.878Z,100.00
2019-01-19T06:32:53.508Z,100.00
2019-01-19T06:35:23.023Z,100.00
2019-01-19T06:37:52.543Z,100.00
2019-01-19T06:40:22.262Z,100.00
2019-01-19T06:42:51.753Z,100.00
2019-01-19T06:45:24.172Z,100.00
2019-01-19T06:47:53.862Z,100.00
2019-01-19T06:50:24.078Z,100.00
2019-01-19T06:52:53.593Z,100.00
2019-01-19T06:55:27.578Z,100.00
2019-01-19T06:57:57.154Z,100.00
2019-01-19T07:00:26.734Z,100.00
2019-01-19T07:02:56.221Z,100.00
2019-01-19T07:05:25.849Z,100.00
2019-01-19T07:07:56.848Z,100.00
2019-01-19T07:10:27.628Z,100.00
2019-01-19T07:12:57.190Z,100.00
2019-01-19T07:15:26.883Z,100.00
2019-01-19T07:17:56.456Z,100.00
2019-01-19T07:20:31.040Z,100.00
2019-01-19T07:23:00.623Z,100.00
2019-01-19T07:25:30.139Z,100.00
2019-01-19T07:27:59.658Z,100.00
2019-01-19T07:30:30.814Z,100.00
2019-01-19T07:33:00.334Z,100.00
2019-01-19T07:35:29.944Z,100.00
2019-01-19T07:37:59.511Z,100.00
2019-01-19T07:40:29.005Z,100.00
2019-01-19T07:43:00.482Z,100.00
2019-01-19T07:45:30.082Z,100.00
2019-01-19T07:47:59.623Z,100.00
2019-01-19T07:50:29.227Z,100.00
2019-01-19T07:52:58.709Z,100.00
2019-01-19T07:55:28.379Z,100.00
2019-01-19T07:57:57.896Z,100.00
2019-01-19T08:00:33.400Z,100.00
2019-01-19T08:03:03.036Z,100.00
2019-01-19T08:05:32.667Z,100.00
2019-01-19T08:08:02.198Z,100.00
2019-01-19T08:10:31.693Z,99.79
2019-01-19T08:13:01.321Z,99.75
2019-01-19T08:15:31.315Z,98.92
2019-01-19T08:18:00.953Z,98.55
2019-01-19T08:20:30.491Z,98.94
2019-01-19T08:23:00.053Z,98.03
2019-01-19T08:25:29.634Z,97.43
2019-01-19T08:27:59.170Z,97.61
2019-01-19T08:30:30.743Z,96.37
2019-01-19T08:33:00.286Z,96.50
2019-01-19T08:35:30.470Z,95.73
2019-01-19T08:38:00.051Z,95.30
2019-01-19T08:40:35.604Z,95.51
2019-01-19T08:43:06.877Z,94.01
2019-01-19T08:45:36.513Z,93.84
2019-01-19T08:48:06.323Z,93.20
2019-01-19T08:50:35.812Z,92.11
2019-01-19T08:53:05.459Z,92.26
2019-01-19T08:55:34.963Z,91.85
2019-01-19T08:58:04.872Z,90.62
2019-01-19T09:00:34.373Z,89.94
2019-01-19T09:03:03.957Z,88.39
2019-01-19T09:05:33.516Z,89.66
2019-01-19T09:08:03.207Z,89.30
2019-01-19T09:10:32.821Z,88.30
2019-01-19T09:13:02.300Z,87.90
2019-01-19T09:15:31.876Z,87.40
2019-01-19T09:18:01.414Z,85.92
2019-01-19T09:20:30.999Z,85.24
2019-01-19T09:23:07.979Z,86.40
2019-01-19T09:25:37.451Z,84.51
2019-01-19T09:28:07.053Z,84.32
2019-01-19T09:30:36.631Z,84.16
2019-01-19T09:33:06.931Z,84.85
2019-01-19T09:35:36.448Z,84.67
2019-01-19T09:38:06.092Z,84.45
2019-01-19T09:40:35.659Z,85.08
2019-01-19T09:43:05.490Z,84.33
2019-01-19T09:45:34.956Z,83.98
2019-01-19T09:48:04.784Z,84.30
2019-01-19T09:50:34.538Z,83.79
2019-01-19T09:53:04.214Z,84.66
2019-01-19T09:55:33.770Z,83.32
2019-01-19T09:58:03.318Z,83.53
2019-01-19T10:00:37.566Z,82.27
2019-01-19T10:03:04.454Z,83.75
2019-01-19T10:05:35.962Z,82.90
2019-01-19T10:08:05.680Z,81.89
2019-01-19T10:10:35.377Z,82.90
2019-01-19T10:13:05.278Z,82.14
2019-01-19T10:15:34.825Z,81.40
2019-01-19T10:18:04.472Z,82.38
2019-01-19T10:20:34.037Z,80.41
2019-01-19T10:23:03.692Z,80.50
2019-01-19T10:25:33.301Z,81.09
2019-01-19T10:28:02.857Z,79.31
2019-01-19T10:30:32.869Z,79.35
2019-01-19T10:33:02.365Z,78.93
2019-01-19T10:35:31.850Z,78.79
2019-01-19T10:38:01.349Z,79.05
2019-01-19T10:40:31.007Z,78.05
2019-01-19T10:43:00.630Z,76.75
2019-01-19T10:45:30.534Z,77.10
2019-01-19T10:48:00.121Z,77.07
2019-01-19T10:50:29.779Z,76.12
2019-01-19T10:52:59.592Z,74.54
2019-01-19T10:55:29.210Z,75.23
2019-01-19T10:57:58.725Z,74.29
2019-01-19T11:00:32.064Z,75.69
2019-01-19T11:03:01.867Z,73.62
2019-01-19T11:05:31.747Z,72.92
2019-01-19T11:08:03.868Z,73.22
2019-01-19T11:10:35.684Z,72.89
2019-01-19T11:13:05.630Z,73.72
2019-01-19T11:15:35.135Z,72.33
2019-01-19T11:18:06.250Z,71.56
2019-01-19T11:20:35.838Z,71.57
2019-01-19T11:23:05.640Z,71.49
2019-01-19T11:25:35.192Z,71.14
2019-01-19T11:28:04.998Z,70.86
2019-01-19T11:30:35.126Z,69.41
2019-01-19T11:33:04.782Z,71.13
2019-01-19T11:35:34.439Z,68.93
2019-01-19T11:38:04.053Z,68.08
2019-01-19T11:40:38.687Z,64.55
2019-01-19T11:43:09.200Z,65.74
2019-01-19T11:45:38.780Z,64.80
2019-01-19T11:48:08.446Z,64.27
2019-01-19T11:50:38.767Z,63.06
2019-01-19T11:53:08.265Z,65.01
2019-01-19T11:55:37.912Z,62.39
2019-01-19T11:58:07.543Z,62.64
2019-01-19T12:00:40.311Z,60.62
2019-01-19T12:03:09.990Z,62.02
2019-01-19T12:05:39.930Z,60.79
2019-01-19T12:08:10.401Z,59.52
2019-01-19T12:10:39.959Z,60.21
2019-01-19T12:13:09.607Z,60.22
2019-01-19T12:15:39.175Z,59.32
2019-01-19T12:18:08.952Z,59.21
2019-01-19T12:20:42.105Z,60.05
2019-01-19T12:23:11.823Z,61.31
2019-01-19T12:25:41.758Z,58.77
2019-01-19T12:28:11.297Z,59.26
2019-01-19T12:30:40.935Z,58.32
2019-01-19T12:33:10.600Z,58.57
2019-01-19T12:35:40.130Z,59.11
2019-01-19T12:38:09.785Z,59.41
2019-01-19T12:40:39.421Z,59.82
2019-01-19T12:43:15.907Z,57.80
2019-01-19T12:45:51.513Z,58.13
2019-01-19T12:48:21.241Z,58.79
2019-01-19T12:50:50.976Z,57.80
2019-01-19T12:53:20.468Z,55.44
2019-01-19T12:55:50.032Z,59.43
2019-01-19T12:58:19.868Z,55.83
2019-01-19T13:00:49.546Z,56.50
2019-01-19T13:03:19.170Z,57.97
2019-01-19T13:05:53.387Z,56.70
2019-01-19T13:08:34.212Z,57.18
2019-01-19T13:11:29.510Z,56.48
2019-01-19T13:14:03.255Z,56.43
2019-01-19T13:17:15.363Z,57.50
2019-01-19T13:19:55.766Z,57.44
2019-01-19T13:22:42.374Z,56.45
2019-01-19T13:25:28.219Z,56.30
2019-01-19T13:28:26.659Z,55.26
2019-01-19T13:31:23.300Z,55.37
2019-01-19T13:34:21.170Z,55.15
2019-01-19T13:36:57.929Z,54.61
2019-01-19T13:39:49.670Z,55.57
2019-01-19T13:42:23.866Z,56.18
2019-01-19T13:45:21.975Z,57.34
2019-01-19T13:48:11.224Z,57.38
2019-01-19T13:51:05.210Z,54.17
2019-01-19T13:54:09.770Z,56.38
2019-01-19T13:57:03.452Z,54.71
2019-01-19T13:59:43.425Z,55.14
2019-01-19T14:02:29.491Z,55.86
2019-01-19T14:05:30.992Z,53.16
2019-01-19T14:08:22.769Z,54.86
2019-01-19T14:11:18.061Z,54.84
2019-01-19T14:13:55.868Z,54.21
2019-01-19T14:16:30.969Z,54.25
2019-01-19T14:19:13.956Z,56.04
2019-01-19T14:22:10.969Z,55.09
2019-01-19T14:24:56.739Z,54.98
2019-01-19T14:27:59.708Z,55.30
2019-01-19T14:30:36.522Z,55.80
2019-01-19T14:33:25.477Z,56.94
2019-01-19T14:36:17.453Z,55.83
2019-01-19T14:39:41.477Z,56.66
2019-01-19T14:42:27.605Z,56.53
2019-01-19T14:45:30.412Z,57.05
2019-01-19T14:48:21.074Z,56.38
2019-01-19T14:51:23.559Z,57.08
2019-01-19T14:54:29.436Z,57.79
2019-01-19T14:57:10.513Z,57.36
2019-01-19T15:00:16.137Z,57.65
2019-01-19T15:03:35.179Z,59.42
2019-01-19T15:06:21.173Z,59.43
2019-01-19T15:09:15.893Z,57.83
2019-01-19T15:12:19.682Z,58.83
2019-01-19T15:15:02.433Z,60.18
2019-01-19T15:18:04.044Z,59.85
2019-01-19T15:20:41.013Z,61.01
2019-01-19T15:23:36.319Z,61.89
2019-01-19T15:26:18.855Z,63.31
2019-01-19T15:29:20.279Z,63.76
2019-01-19T15:32:13.813Z,65.08
2019-01-19T15:35:18.006Z,65.02
2019-01-19T15:38:23.351Z,65.52
2019-01-19T15:41:29.145Z,66.32
2019-01-19T15:44:39.249Z,66.72
2019-01-19T15:47:22.291Z,67.72
2019-01-19T15:50:16.029Z,69.29
2019-01-19T15:52:50.310Z,70.72
2019-01-19T15:56:11.734Z,71.73
2019-01-19T15:58:54.390Z,72.54
2019-01-19T16:01:40.275Z,73.22
2019-01-19T16:04:35.407Z,73.78
2019-01-19T16:07:24.970Z,75.27
2019-01-19T16:10:24.628Z,75.85
2019-01-19T16:13:20.805Z,76.99
2019-01-19T16:16:10.384Z,77.09
2019-01-19T16:18:53.044Z,77.18
2019-01-19T16:21:35.949Z,77.99
2019-01-19T16:24:40.303Z,78.86
2019-01-19T16:27:29.891Z,79.70
2019-01-19T16:30:29.469Z,80.40
2019-01-19T16:33:24.177Z,80.84
2019-01-19T16:36:25.330Z,81.00
2019-01-19T16:39:28.946Z,81.77
2019-01-19T16:42:06.929Z,80.94
2019-01-19T16:44:41.174Z,81.27
2019-01-19T16:47:36.811Z,81.88
2019-01-19T16:50:36.607Z,82.28
2019-01-19T16:53:11.093Z,81.98
2019-01-19T16:55:45.254Z,81.83
2019-01-19T16:58:24.665Z,82.21
2019-01-19T17:01:33.911Z,82.86
2019-01-19T17:04:16.970Z,82.12
2019-01-19T17:06:56.988Z,82.52
2019-01-19T17:09:52.164Z,82.87
2019-01-19T17:12:38.240Z,82.77
2019-01-19T17:15:24.443Z,82.93
2019-01-19T17:18:07.218Z,82.97
2019-01-19T17:21:03.259Z,83.00
2019-01-19T17:23:46.324Z,82.68
2019-01-19T17:26:29.235Z,83.59
2019-01-19T17:29:27.388Z,83.83
2019-01-19T17:32:16.701Z,84.40
2019-01-19T17:35:20.843Z,84.37
2019-01-19T17:38:05.055Z,83.91
2019-01-19T17:40:41.959Z,84.54
2019-01-19T17:43:26.274Z,84.60
2019-01-19T17:46:18.342Z,85.04
2019-01-19T17:49:01.276Z,85.12
2019-01-19T17:52:10.040Z,84.82
2019-01-19T17:55:32.433Z,84.48
2019-01-19T17:58:27.040Z,85.05
2019-01-19T18:01:26.908Z,85.10
2019-01-19T18:04:18.956Z,85.20
2019-01-19T18:07:18.816Z,85.21
2019-01-19T18:10:07.946Z,85.20
2019-01-19T18:12:53.921Z,85.71
2019-01-19T18:15:51.112Z,86.65
2019-01-19T18:18:40.437Z,87.25
2019-01-19T18:21:29.096Z,86.83
2019-01-19T18:24:30.342Z,86.32
2019-01-19T18:27:25.858Z,86.37
2019-01-19T18:30:12.011Z,85.96
2019-01-19T18:33:03.819Z,86.65
2019-01-19T18:35:52.898Z,86.33
2019-01-19T18:38:41.588Z,86.22
2019-01-19T18:41:30.362Z,87.17
2019-01-19T18:44:37.822Z,88.33
2019-01-19T18:47:30.115Z,87.41
2019-01-19T18:50:32.244Z,87.38
2019-01-19T18:53:35.403Z,88.45
2019-01-19T18:56:38.745Z,88.92
2019-01-19T18:59:15.841Z,89.13
2019-01-19T19:02:35.231Z,89.04
2019-01-19T19:05:20.505Z,89.57
2019-01-19T19:08:15.479Z,89.90
2019-01-19T19:10:55.644Z,91.42
2019-01-19T19:13:35.866Z,91.57
2019-01-19T19:16:33.965Z,91.78
2019-01-19T19:19:42.235Z,92.38
2019-01-19T19:22:24.968Z,92.22
2019-01-19T19:25:28.806Z,92.73
2019-01-19T19:28:45.912Z,93.08
2019-01-19T19:31:46.654Z,92.99
2019-01-19T19:34:41.180Z,91.83
2019-01-19T19:37:34.684Z,91.88
2019-01-19T19:40:20.876Z,93.19
2019-01-19T19:42:55.087Z,93.36
2019-01-19T19:45:47.099Z,92.88
2019-01-19T19:48:23.946Z,93.11
2019-01-19T19:51:12.474Z,92.40
2019-01-19T19:53:42.513Z,92.11
2019-01-19T19:56:10.458Z,93.02
2019-01-19T19:58:40.961Z,92.82
2019-01-19T20:01:10.592Z,92.70
2019-01-19T20:03:40.211Z,92.00
2019-01-19T20:06:09.786Z,92.35
2019-01-19T20:08:39.384Z,92.38
2019-01-19T20:11:09.041Z,92.37
2019-01-19T20:13:38.702Z,93.05
2019-01-19T20:16:08.293Z,92.67
2019-01-19T20:18:37.979Z,92.62
2019-01-19T20:21:07.910Z,93.45
2019-01-19T20:23:37.646Z,94.04
2019-01-19T20:26:07.380Z,93.70
2019-01-19T20:28:36.994Z,93.20
2019-01-19T20:31:06.721Z,92.81
2019-01-19T20:33:36.321Z,91.64
2019-01-19T20:36:06.092Z,91.15
2019-01-19T20:38:35.725Z,90.54
2019-01-19T20:41:05.540Z,90.98
2019-01-19T20:43:35.239Z,90.72
2019-01-19T20:46:04.885Z,90.86
2019-01-19T20:48:34.669Z,90.88
2019-01-19T20:51:04.659Z,91.03
2019-01-19T20:53:34.291Z,89.22
2019-01-19T20:56:04.084Z,89.05
2019-01-19T20:58:33.698Z,88.48
2019-01-19T21:01:03.185Z,89.51
2019-01-19T21:03:32.786Z,89.72
2019-01-19T21:06:02.391Z,90.59
2019-01-19T21:08:31.957Z,90.28
2019-01-19T21:11:01.551Z,90.95
2019-01-19T21:13:31.564Z,91.81
2019-01-19T21:16:02.695Z,92.18
2019-01-19T21:18:32.282Z,92.40
2019-01-19T21:21:02.251Z,91.77
2019-01-19T21:23:31.873Z,91.88
2019-01-19T21:26:04.202Z,91.72
2019-01-19T21:28:34.006Z,92.50
2019-01-19T21:31:03.614Z,91.76
2019-01-19T21:33:33.203Z,92.07
2019-01-19T21:36:02.840Z,92.46
2019-01-19T21:38:34.311Z,91.52
2019-01-19T21:41:06.180Z,92.39
2019-01-19T21:43:35.650Z,91.66
2019-01-19T21:46:05.287Z,92.81
2019-01-19T21:48:35.039Z,93.54
2019-01-19T21:51:04.587Z,93.85
2019-01-19T21:53:34.501Z,94.49
2019-01-19T21:56:05.623Z,93.44
2019-01-19T21:58:37.226Z,93.18
2019-01-19T22:01:06.870Z,94.03
2019-01-19T22:03:39.347Z,94.00
2019-01-19T22:06:09.539Z,94.16
2019-01-19T22:08:39.096Z,93.54
2019-01-19T22:11:08.658Z,94.73
2019-01-19T22:13:38.166Z,95.05
2019-01-19T22:16:07.756Z,95.04
2019-01-19T22:18:37.350Z,95.48
2019-01-19T22:21:06.992Z,94.86
2019-01-19T22:23:36.541Z,95.16
2019-01-19T22:26:08.038Z,93.45
2019-01-19T22:28:37.733Z,93.57
2019-01-19T22:31:07.244Z,92.69
2019-01-19T22:33:36.860Z,91.87
2019-01-19T22:36:07.466Z,91.28
2019-01-19T22:38:37.920Z,91.79
2019-01-19T22:41:09.075Z,92.10
2019-01-19T22:43:38.644Z,92.81
2019-01-19T22:46:08.311Z,93.31
2019-01-19T22:48:37.899Z,93.00
2019-01-19T22:51:11.427Z,92.51
2019-01-19T22:53:38.689Z,93.26
2019-01-19T22:56:08.229Z,92.88
2019-01-19T22:58:37.822Z,94.36
2019-01-19T23:01:21.199Z,94.72
2019-01-19T23:03:50.785Z,96.21
2019-01-19T23:06:20.356Z,96.81
2019-01-19T23:08:49.962Z,97.22
2019-01-19T23:11:19.540Z,98.37
2019-01-19T23:13:49.098Z,99.01
2019-01-19T23:16:18.769Z,100.00
2019-01-19T23:18:48.340Z,100.00
2019-01-19T23:21:17.873Z,100.00
2019-01-19T23:23:47.368Z,100.00
2019-01-19T23:26:17.525Z,100.00
2019-01-19T23:28:47.017Z,100.00
2019-01-19T23:31:16.511Z,100.00
2019-01-19T23:33:46.111Z,100.00
2019-01-19T23:36:15.596Z,100.00
2019-01-19T23:38:45.253Z,100.00
2019-01-19T23:41:16.893Z,100.00
2019-01-19T23:43:46.492Z,100.00
2019-01-19T23:46:16.067Z,100.00
2019-01-19T23:48:45.723Z,100.00
2019-01-19T23:51:15.251Z,100.00
2019-01-19T23:53:44.831Z,100.00
2019-01-19T23:56:14.476Z,100.00
2019-01-19T23:58:44.059Z,100.00
